EDDNLOWS

Guest
Details From EDDN - Nurnberg
To LOWS - Salzburg Maxglan
Flight Number -
Tags Generated
Created
Modified
Stats Distance 128 nm / 236 km
Max Altitude 0 ft / 0 m
Waypoints 3
Social Downloads 0
Likes 0
Share VATSIM

Download

Looking for another format? Having issues loading an existing format? Contact us
Advertisement - Login to hide

Notes

Generated

Route

EDDN TAKUS LOWS

ID Type Via Altitude Latitude Longitude Leg Dist Tot Dist Heading (true) Name
O EDDN APT - 0 ft / 0 m 49.50055˚ 11.05918˚ - 0 nm - -
TAKUS FIX - 0 ft / 0 m 47.95589˚ 12.81823˚ 116 nm 116 nm 142° / 144° -
O LOWS APT - 0 ft / 0 m 47.80472˚ 12.99717˚ 11 nm 127 nm 141° / 142° -

Altitude Profile

Advertisement - Login to hide

EDDN

Details ICAO EDDN (NUE)
Name Nurnberg
Region Germany - Civil
Timezone Europe/Berlin (UTC+1.0)
Stats Elevation 1,045 ft / 319 m (AMSL)
Location 49.498744° 11.077580°
Runways 1
Magnetic Variation 3.018° E

METAR

EDDN 121020Z 24014KT 9999 FEW025 BKN043 03/M02 Q1008 R28/CLRD// NOSIG

Decode

TAF

TAF TAF EDDN 120500Z 1206/1306 25020G35KT 9999 SCT020 BKN040 BECMG 1206/1208 25015G25KT BECMG 1209/1211 24010KT PROB30 TEMPO 1212/1216 4000 -SHSN BKN020TCU BECMG 1215/1217 24005KT BECMG 1220/1222 18005KT PROB30 TEMPO 1221/1224 4000 -SHSN BKN020TCU

Decode

Departure Runways

ID Width Length Bearing (true) Bearing (mag) Surface Threshold Offset Overrun Length
10 148 ft / 45 m 8,819 ft / 2,688 m 98.60° 95.58° Asphalt 0 ft / 0 m 0 ft / 0 m
28 148 ft / 45 m 8,819 ft / 2,688 m 278.63° 275.61° Asphalt 0 ft / 0 m 0 ft / 0 m

LOWS

Details ICAO LOWS (SZG)
Name Salzburg Maxglan
Region Austria
Timezone Europe/Vienna (UTC+1.0)
Stats Elevation 1,411 ft / 430 m (AMSL)
Location 47.793333° 13.004333°
Runways 1
Magnetic Variation 3.427° E

METAR

LOWS 121020Z 33005KT 9999 FEW012 SCT030 BKN060 03/M00 Q1010 NOSIG

Decode

TAF

TAF AMD LOWS 120900Z 1209/1306 32008KT 9999 SCT035 BKN060 TX03/1209Z TNM02/1305Z TEMPO 1209/1212 31015G25KT 4000 SHRA SCT012 BKN025 TEMPO 1212/1215 -RASN BKN040 TEMPO 1215/1222 4000 -SHSN SCT030 BKN040 BECMG 1218/1220 16005KT BECMG 1303/1305 FEW050 SCT120

Decode

Destination Runways

ID Width Length Bearing (true) Bearing (mag) Surface Threshold Offset Overrun Length
16 148 ft / 45 m 9,024 ft / 2,751 m 157.08° 153.65° Concrete 656 ft / 200 m 0 ft / 0 m
34 148 ft / 45 m 9,024 ft / 2,751 m 337.09° 333.66° Concrete 787 ft / 240 m 0 ft / 0 m

Approach Navaids

Runway Type Ident Frequency Range Bearing (true) Bearing (mag) Slope Elevation
16 Localiser OES 109.90 MHz 18 nm / 33 km 157.53° 154.11° - 1,411 ft / 430 m (AMSL)
16 Glidescope OES 109.90 MHz 10 nm / 19 km 157.09° 153.66° 3.00° 1,446 ft / 441 m (AMSL)
16 DME OES 109.90 MHz 18 nm / 33 km - - - 1,446 ft / 441 m (AMSL)

Popular Alternatives